createdAt,value
2019-06-15T00:00:23.451Z,90.10
2019-06-15T00:02:52.837Z,90.20
2019-06-15T00:05:22.160Z,90.10
2019-06-15T00:07:51.569Z,90.10
2019-06-15T00:10:20.925Z,90.20
2019-06-15T00:12:50.258Z,90.40
2019-06-15T00:15:20.007Z,90.40
2019-06-15T00:17:49.392Z,90.60
2019-06-15T00:20:19.187Z,90.90
2019-06-15T00:22:48.481Z,90.90
2019-06-15T00:25:18.677Z,90.80
2019-06-15T00:27:48.027Z,90.80
2019-06-15T00:30:19.020Z,90.90
2019-06-15T00:32:48.459Z,90.80
2019-06-15T00:35:18.409Z,90.70
2019-06-15T00:37:47.765Z,90.80
2019-06-15T00:40:17.462Z,90.90
2019-06-15T00:42:46.800Z,91.10
2019-06-15T00:45:16.094Z,91.40
2019-06-15T00:47:45.461Z,91.20
2019-06-15T00:50:16.049Z,91.30
2019-06-15T00:52:45.377Z,91.40
2019-06-15T00:55:14.669Z,91.50
2019-06-15T00:57:44.003Z,91.50
2019-06-15T01:00:13.783Z,91.70
2019-06-15T01:02:43.073Z,91.90
2019-06-15T01:05:12.807Z,91.90
2019-06-15T01:07:42.194Z,91.80
2019-06-15T01:10:14.451Z,92.00
2019-06-15T01:12:44.293Z,92.00
2019-06-15T01:15:15.213Z,92.10
2019-06-15T01:17:44.626Z,92.20
2019-06-15T01:20:14.970Z,92.40
2019-06-15T01:22:44.254Z,92.30
2019-06-15T01:25:14.107Z,92.10
2019-06-15T01:27:43.482Z,92.00
2019-06-15T01:30:14.541Z,91.90
2019-06-15T01:32:43.829Z,92.10
2019-06-15T01:35:14.277Z,92.00
2019-06-15T01:37:43.552Z,92.00
2019-06-15T01:40:14.886Z,92.30
2019-06-15T01:42:44.221Z,92.40
2019-06-15T01:45:15.050Z,92.50
2019-06-15T01:47:44.385Z,92.60
2019-06-15T01:50:16.490Z,92.50
2019-06-15T01:52:45.837Z,92.50
2019-06-15T01:55:20.958Z,92.40
2019-06-15T01:57:46.136Z,92.60
2019-06-15T02:00:29.672Z,92.40
2019-06-15T02:02:59.057Z,92.40
2019-06-15T02:05:28.413Z,92.20
2019-06-15T02:07:57.733Z,92.30
2019-06-15T02:10:31.101Z,92.40
2019-06-15T02:13:00.972Z,92.60
2019-06-15T02:15:30.255Z,92.50
2019-06-15T02:17:59.546Z,92.40
2019-06-15T02:20:28.953Z,92.10
2019-06-15T02:22:58.238Z,91.80
2019-06-15T02:25:35.859Z,91.50
2019-06-15T02:28:00.917Z,91.40
2019-06-15T02:30:32.825Z,91.30
2019-06-15T02:33:02.553Z,91.20
2019-06-15T02:35:31.838Z,91.30
2019-06-15T02:38:01.162Z,91.00
2019-06-15T02:40:30.458Z,90.90
2019-06-15T02:42:59.738Z,91.20
2019-06-15T02:45:29.106Z,91.60
2019-06-15T02:47:58.527Z,92.60
2019-06-15T02:50:27.827Z,93.40
2019-06-15T02:52:57.179Z,93.40
2019-06-15T02:55:26.634Z,93.40
2019-06-15T02:57:56.037Z,93.40
2019-06-15T03:01:02.696Z,93.20
2019-06-15T03:03:32.035Z,93.00
2019-06-15T03:06:02.226Z,92.30
2019-06-15T03:08:31.665Z,92.00
2019-06-15T03:11:01.008Z,91.90
2019-06-15T03:13:31.990Z,92.40
2019-06-15T03:16:01.322Z,91.90
2019-06-15T03:18:30.604Z,90.20
2019-06-15T03:20:59.931Z,87.30
2019-06-15T03:23:29.293Z,84.90
2019-06-15T03:26:05.449Z,84.70
2019-06-15T03:28:29.735Z,84.90
2019-06-15T03:30:59.215Z,82.60
2019-06-15T03:33:28.562Z,80.90
2019-06-15T03:35:57.964Z,80.00
2019-06-15T03:38:27.297Z,79.90
2019-06-15T03:40:56.574Z,79.30
2019-06-15T03:43:25.860Z,78.40
2019-06-15T03:45:55.215Z,79.30
2019-06-15T03:48:24.492Z,79.80
2019-06-15T03:50:53.809Z,82.70
2019-06-15T03:53:23.139Z,83.50
2019-06-15T03:55:52.456Z,82.60
2019-06-15T03:58:21.737Z,83.70
2019-06-15T04:01:03.198Z,83.40
2019-06-15T04:03:32.578Z,82.30
2019-06-15T04:06:01.909Z,83.00
2019-06-15T04:08:31.237Z,81.50
2019-06-15T04:11:00.527Z,78.80
2019-06-15T04:13:29.858Z,78.90
2019-06-15T04:15:59.136Z,79.00
2019-06-15T04:18:28.475Z,77.60
2019-06-15T04:20:58.782Z,76.90
2019-06-15T04:23:28.130Z,76.70
2019-06-15T04:25:57.413Z,75.50
2019-06-15T04:28:26.741Z,74.80
2019-06-15T04:30:56.025Z,74.40
2019-06-15T04:33:25.348Z,74.40
2019-06-15T04:35:54.637Z,74.50
2019-06-15T04:38:23.962Z,75.60
2019-06-15T04:40:53.249Z,75.40
2019-06-15T04:43:22.599Z,75.20
2019-06-15T04:45:51.955Z,75.20
2019-06-15T04:48:21.245Z,75.10
2019-06-15T04:50:50.566Z,75.20
2019-06-15T04:53:19.853Z,75.40
2019-06-15T04:55:49.209Z,75.20
2019-06-15T04:58:18.563Z,75.20
2019-06-15T05:00:47.937Z,75.50
2019-06-15T05:03:17.291Z,75.20
2019-06-15T05:05:46.578Z,76.30
2019-06-15T05:08:15.930Z,78.00
2019-06-15T05:10:45.616Z,77.10
2019-06-15T05:13:14.949Z,76.90
2019-06-15T05:15:44.244Z,78.00
2019-06-15T05:18:13.602Z,78.00
2019-06-15T05:20:42.937Z,78.80
2019-06-15T05:23:12.263Z,78.80
2019-06-15T05:25:41.591Z,78.50
2019-06-15T05:28:10.973Z,78.10
2019-06-15T05:30:40.299Z,78.00
2019-06-15T05:33:10.185Z,78.10
2019-06-15T05:35:39.533Z,80.00
2019-06-15T05:38:08.814Z,82.50
2019-06-15T05:40:38.161Z,81.30
2019-06-15T05:43:07.445Z,79.30
2019-06-15T05:45:36.790Z,78.90
2019-06-15T05:48:06.149Z,85.60
2019-06-15T05:50:35.491Z,88.70
2019-06-15T05:53:05.195Z,89.10
2019-06-15T05:55:35.535Z,87.80
2019-06-15T05:58:07.663Z,86.40
2019-06-15T06:00:36.985Z,84.60
2019-06-15T06:03:06.390Z,87.80
2019-06-15T06:05:35.698Z,89.80
2019-06-15T06:08:05.459Z,91.10
2019-06-15T06:10:35.798Z,90.40
2019-06-15T06:13:06.188Z,88.70
2019-06-15T06:15:35.529Z,88.00
2019-06-15T06:18:04.990Z,89.40
2019-06-15T06:20:34.333Z,89.70
2019-06-15T06:23:04.705Z,89.90
2019-06-15T06:25:34.126Z,89.70
2019-06-15T06:28:03.529Z,90.00
2019-06-15T06:30:32.974Z,89.90
2019-06-15T06:33:02.344Z,88.80
2019-06-15T06:35:34.253Z,88.80
2019-06-15T06:38:03.675Z,88.00
2019-06-15T06:40:34.138Z,87.20
2019-06-15T06:43:03.497Z,83.00
2019-06-15T06:45:32.874Z,87.30
2019-06-15T06:48:03.245Z,87.80
2019-06-15T06:50:32.730Z,87.00
2019-06-15T06:53:02.114Z,85.90
2019-06-15T06:55:31.470Z,86.10
2019-06-15T06:58:00.920Z,85.80
2019-06-15T07:00:30.324Z,87.00
2019-06-15T07:02:59.727Z,87.30
2019-06-15T07:05:29.183Z,86.70
2019-06-15T07:07:59.596Z,87.10
2019-06-15T07:10:28.981Z,86.40
2019-06-15T07:12:58.300Z,84.30
2019-06-15T07:15:27.675Z,85.30
2019-06-15T07:17:57.021Z,86.00
2019-06-15T07:20:26.401Z,85.70
2019-06-15T07:22:55.806Z,85.70
2019-06-15T07:25:25.209Z,85.10
2019-06-15T07:28:07.105Z,85.50
2019-06-15T07:30:25.815Z,84.90
2019-06-15T07:32:55.342Z,85.30
2019-06-15T07:35:26.140Z,85.90
2019-06-15T07:37:56.014Z,86.30
2019-06-15T07:40:26.117Z,87.20
2019-06-15T07:42:55.551Z,87.00
2019-06-15T07:45:24.905Z,85.80
2019-06-15T07:47:54.269Z,87.30
2019-06-15T07:50:23.605Z,87.30
2019-06-15T07:52:52.927Z,86.50
2019-06-15T07:55:22.301Z,88.10
2019-06-15T07:57:51.663Z,87.30
2019-06-15T08:00:22.403Z,86.90
2019-06-15T08:02:51.886Z,85.60
2019-06-15T08:05:22.290Z,87.90
2019-06-15T08:07:51.737Z,86.10
2019-06-15T08:10:21.169Z,86.40
2019-06-15T08:12:50.555Z,85.40
2019-06-15T08:15:20.281Z,85.20
2019-06-15T08:17:50.617Z,84.10
2019-06-15T08:20:23.230Z,85.20
2019-06-15T08:22:52.643Z,83.60
2019-06-15T08:25:21.997Z,84.40
2019-06-15T08:27:51.369Z,84.80
2019-06-15T08:30:27.633Z,86.00
2019-06-15T08:32:57.013Z,85.60
2019-06-15T08:35:26.369Z,85.70
2019-06-15T08:37:55.717Z,84.50
2019-06-15T08:40:25.116Z,84.70
2019-06-15T08:42:54.485Z,84.70
2019-06-15T08:45:23.929Z,85.50
2019-06-15T08:47:53.286Z,84.30
2019-06-15T08:50:22.629Z,84.80
2019-06-15T08:52:52.143Z,86.20
2019-06-15T08:55:21.608Z,87.10
2019-06-15T08:57:51.069Z,86.20
2019-06-15T09:00:21.448Z,86.20
2019-06-15T09:02:50.947Z,85.00
2019-06-15T09:05:20.386Z,85.20
2019-06-15T09:07:49.788Z,83.90
2019-06-15T09:10:19.987Z,84.00
2019-06-15T09:12:49.358Z,82.70
2019-06-15T09:15:30.834Z,83.60
2019-06-15T09:18:00.152Z,82.40
2019-06-15T09:20:29.518Z,84.20
2019-06-15T09:22:58.903Z,82.90
2019-06-15T09:25:28.335Z,83.30
2019-06-15T09:27:57.690Z,84.20
2019-06-15T09:30:28.101Z,82.30
2019-06-15T09:32:58.385Z,84.30
2019-06-15T09:35:27.782Z,83.80
2019-06-15T09:37:58.245Z,84.80
2019-06-15T09:40:27.564Z,82.10
2019-06-15T09:42:56.946Z,80.70
2019-06-15T09:45:27.329Z,79.50
2019-06-15T09:47:56.720Z,76.00
2019-06-15T09:50:26.089Z,75.40
2019-06-15T09:52:55.542Z,74.40
2019-06-15T09:55:25.041Z,77.10
2019-06-15T09:57:54.473Z,72.00
2019-06-15T10:00:24.339Z,74.40
2019-06-15T10:02:54.387Z,70.20
2019-06-15T10:05:23.697Z,70.20
2019-06-15T10:07:53.071Z,70.80
2019-06-15T10:10:24.570Z,72.20
2019-06-15T10:12:54.562Z,65.80
2019-06-15T10:15:23.906Z,68.80
2019-06-15T10:17:53.253Z,67.40
2019-06-15T10:20:22.703Z,66.50
2019-06-15T10:22:52.037Z,65.90
2019-06-15T10:25:21.403Z,63.30
2019-06-15T10:27:50.770Z,64.40
2019-06-15T10:30:20.614Z,62.00
2019-06-15T10:32:49.966Z,66.80
2019-06-15T10:35:19.376Z,61.40
2019-06-15T10:37:48.741Z,59.40
2019-06-15T10:40:19.877Z,60.20
2019-06-15T10:42:49.192Z,61.70
2019-06-15T10:45:20.534Z,62.60
2019-06-15T10:47:49.928Z,62.60
2019-06-15T10:50:19.997Z,62.80
2019-06-15T10:52:49.349Z,64.60
2019-06-15T10:55:19.741Z,65.40
2019-06-15T10:57:49.104Z,66.80
2019-06-15T11:00:20.453Z,66.10
2019-06-15T11:02:49.852Z,65.10
2019-06-15T11:05:21.158Z,65.80
2019-06-15T11:07:51.616Z,65.00
2019-06-15T11:10:58.875Z,62.80
2019-06-15T11:13:29.227Z,63.20
2019-06-15T11:16:01.153Z,63.60
2019-06-15T11:18:31.986Z,64.00
2019-06-15T11:21:02.346Z,64.20
2019-06-15T11:23:40.806Z,60.20
2019-06-15T11:26:10.165Z,46.80
2019-06-15T11:28:39.505Z,37.20
2019-06-15T11:31:08.934Z,36.40
2019-06-15T11:33:39.293Z,37.80
2019-06-15T11:36:10.856Z,38.40
2019-06-15T11:38:40.811Z,40.10
2019-06-15T11:41:11.658Z,42.60
2019-06-15T11:43:42.040Z,45.90
2019-06-15T11:46:11.489Z,48.40
2019-06-15T11:48:40.810Z,53.90
2019-06-15T11:51:10.230Z,56.40
2019-06-15T11:53:39.537Z,52.70
2019-06-15T11:56:09.978Z,46.80
2019-06-15T11:58:39.318Z,47.20
2019-06-15T12:01:08.730Z,48.00
2019-06-15T12:03:38.097Z,49.20
2019-06-15T12:06:07.421Z,49.60
2019-06-15T12:08:36.785Z,45.90
2019-06-15T12:11:06.192Z,48.50
2019-06-15T12:13:35.603Z,49.50
2019-06-15T12:16:05.417Z,50.30
2019-06-15T12:18:34.717Z,52.60
2019-06-15T12:21:04.045Z,56.10
2019-06-15T12:23:33.426Z,58.50
2019-06-15T12:26:02.781Z,57.90
2019-06-15T12:28:32.727Z,54.90
2019-06-15T12:31:02.145Z,56.40
2019-06-15T12:33:31.541Z,55.90
2019-06-15T12:36:00.906Z,53.60
2019-06-15T12:38:30.390Z,51.90
2019-06-15T12:40:59.750Z,55.00
2019-06-15T12:43:29.192Z,53.50
2019-06-15T12:45:59.577Z,52.30
2019-06-15T12:48:28.943Z,50.20
2019-06-15T12:50:58.369Z,51.50
2019-06-15T12:53:33.726Z,50.00
2019-06-15T12:56:03.118Z,50.80
2019-06-15T12:58:32.471Z,51.60
2019-06-15T13:01:03.549Z,49.10
2019-06-15T13:03:32.993Z,51.20
2019-06-15T13:06:02.330Z,53.30
2019-06-15T13:08:31.731Z,53.70
2019-06-15T13:11:02.183Z,54.60
2019-06-15T13:13:33.553Z,53.50
2019-06-15T13:16:02.843Z,53.90
2019-06-15T13:18:33.310Z,53.00
2019-06-15T13:21:02.673Z,51.30
2019-06-15T13:23:33.065Z,51.20
2019-06-15T13:26:02.417Z,52.00
2019-06-15T13:28:32.799Z,53.30
2019-06-15T13:31:14.854Z,51.80
2019-06-15T13:33:33.157Z,47.30
2019-06-15T13:36:02.499Z,44.10
2019-06-15T13:38:31.879Z,41.70
2019-06-15T13:41:01.242Z,42.90
2019-06-15T13:43:30.584Z,44.50
2019-06-15T13:45:59.960Z,44.40
2019-06-15T13:48:29.370Z,45.80
2019-06-15T13:50:58.673Z,44.70
2019-06-15T13:53:29.183Z,44.30
2019-06-15T13:55:58.481Z,46.00
2019-06-15T13:58:27.833Z,46.10
2019-06-15T14:01:00.647Z,48.10
2019-06-15T14:03:29.229Z,50.00
2019-06-15T14:05:58.512Z,47.80
2019-06-15T14:08:27.871Z,48.60
2019-06-15T14:10:57.229Z,49.60
2019-06-15T14:13:26.603Z,48.80
2019-06-15T14:15:57.070Z,49.00
2019-06-15T14:18:27.564Z,49.80
2019-06-15T14:20:58.522Z,50.90
2019-06-15T14:23:28.097Z,50.40
2019-06-15T14:25:57.429Z,52.00
2019-06-15T14:28:26.722Z,52.40
2019-06-15T14:30:56.134Z,52.60
2019-06-15T14:33:26.522Z,52.40
2019-06-15T14:35:55.874Z,52.80
2019-06-15T14:38:25.281Z,52.70
2019-06-15T14:40:54.679Z,52.60
2019-06-15T14:43:24.114Z,53.80
2019-06-15T14:45:59.526Z,54.40
2019-06-15T14:48:25.570Z,51.60
2019-06-15T14:50:54.961Z,54.10
2019-06-15T14:53:24.371Z,52.70
2019-06-15T14:55:56.345Z,51.10
2019-06-15T14:58:26.395Z,51.60
2019-06-15T15:00:57.345Z,52.10
2019-06-15T15:03:26.770Z,50.40
2019-06-15T15:05:56.185Z,52.50
2019-06-15T15:08:26.426Z,50.20
2019-06-15T15:10:56.453Z,50.00
2019-06-15T15:13:26.498Z,47.80
2019-06-15T15:15:57.606Z,46.80
2019-06-15T15:18:27.196Z,45.10
2019-06-15T15:20:57.096Z,47.10
2019-06-15T15:23:26.485Z,44.10
2019-06-15T15:25:57.593Z,44.70
2019-06-15T15:28:27.018Z,41.80
2019-06-15T15:30:56.382Z,40.70
2019-06-15T15:33:25.735Z,41.50
2019-06-15T15:35:55.159Z,41.10
2019-06-15T15:38:24.577Z,40.80
2019-06-15T15:40:55.992Z,41.40
2019-06-15T15:43:26.464Z,42.10
2019-06-15T15:45:56.521Z,41.10
2019-06-15T15:48:26.065Z,39.60
2019-06-15T15:50:57.347Z,40.20
2019-06-15T15:53:27.549Z,40.80
2019-06-15T15:55:59.803Z,40.60
2019-06-15T15:58:27.984Z,39.30
2019-06-15T16:00:57.400Z,42.20
2019-06-15T16:03:26.749Z,42.10
2019-06-15T16:05:56.238Z,41.50
2019-06-15T16:08:28.380Z,41.20
2019-06-15T16:10:57.253Z,41.70
2019-06-15T16:13:27.693Z,42.40
2019-06-15T16:15:57.237Z,44.00
2019-06-15T16:18:26.703Z,43.90
2019-06-15T16:20:56.100Z,43.90
2019-06-15T16:23:25.486Z,43.80
2019-06-15T16:25:54.995Z,44.50
2019-06-15T16:28:26.373Z,44.60
2019-06-15T16:31:06.582Z,44.60
2019-06-15T16:33:26.687Z,43.90
2019-06-15T16:35:56.861Z,44.90
2019-06-15T16:38:27.702Z,46.00
2019-06-15T16:40:57.669Z,47.60
2019-06-15T16:43:28.797Z,47.80
2019-06-15T16:45:58.138Z,49.20
2019-06-15T16:48:27.485Z,50.50
2019-06-15T16:50:57.855Z,50.30
2019-06-15T16:53:27.917Z,51.60
2019-06-15T16:55:57.221Z,52.80
2019-06-15T16:58:26.646Z,52.20
2019-06-15T17:00:57.168Z,53.20
2019-06-15T17:03:29.379Z,53.90
2019-06-15T17:05:58.322Z,54.80
2019-06-15T17:08:27.644Z,55.50
2019-06-15T17:10:57.060Z,56.90
2019-06-15T17:13:26.430Z,57.90
2019-06-15T17:15:57.161Z,59.00
2019-06-15T17:18:26.929Z,60.40
2019-06-15T17:20:56.652Z,61.70
2019-06-15T17:23:27.688Z,64.60
2019-06-15T17:25:57.850Z,66.30
2019-06-15T17:28:27.177Z,66.20
2019-06-15T17:30:56.815Z,67.90
2019-06-15T17:33:37.240Z,69.70
2019-06-15T17:36:03.292Z,71.40
2019-06-15T17:38:32.090Z,72.80
2019-06-15T17:41:02.461Z,80.40
2019-06-15T17:43:31.916Z,63.20
2019-06-15T17:46:01.325Z,47.80
2019-06-15T17:48:30.725Z,38.70
2019-06-15T17:51:01.113Z,35.50
2019-06-15T17:53:33.616Z,34.20
2019-06-15T17:56:01.715Z,32.40
2019-06-15T17:58:32.088Z,34.20
2019-06-15T18:01:02.135Z,35.30
2019-06-15T18:03:31.490Z,39.20
2019-06-15T18:06:00.829Z,38.10
2019-06-15T18:08:30.238Z,40.20
2019-06-15T18:10:59.658Z,36.30
2019-06-15T18:13:29.070Z,35.00
2019-06-15T18:15:58.424Z,34.30
2019-06-15T18:18:28.029Z,33.80
2019-06-15T18:20:58.042Z,35.40
2019-06-15T18:23:28.424Z,35.10
2019-06-15T18:25:57.778Z,36.40
2019-06-15T18:28:27.209Z,37.10
2019-06-15T18:30:57.597Z,35.80
2019-06-15T18:33:27.371Z,36.10
2019-06-15T18:35:57.470Z,37.20
2019-06-15T18:38:26.821Z,37.50
2019-06-15T18:40:56.421Z,39.40
2019-06-15T18:43:26.449Z,41.90
2019-06-15T18:45:57.433Z,44.20
2019-06-15T18:48:26.801Z,46.70
2019-06-15T18:50:56.232Z,47.90
2019-06-15T18:53:26.877Z,49.20
2019-06-15T18:55:57.242Z,50.30
2019-06-15T18:58:27.618Z,51.50
2019-06-15T19:00:56.995Z,52.40
2019-06-15T19:03:26.604Z,53.60
2019-06-15T19:05:57.134Z,54.80
2019-06-15T19:08:27.042Z,55.50
2019-06-15T19:10:56.467Z,56.40
2019-06-15T19:13:26.900Z,57.20
2019-06-15T19:15:57.356Z,57.60
2019-06-15T19:18:28.485Z,58.30
2019-06-15T19:21:17.102Z,59.40
2019-06-15T19:23:47.195Z,59.40
2019-06-15T19:26:16.590Z,60.10
2019-06-15T19:28:46.106Z,60.40
2019-06-15T19:31:15.589Z,61.10
2019-06-15T19:33:46.843Z,61.40
2019-06-15T19:36:18.054Z,61.50
2019-06-15T19:38:47.433Z,62.30
2019-06-15T19:41:16.757Z,62.60
2019-06-15T19:43:46.772Z,63.30
2019-06-15T19:46:17.139Z,63.90
2019-06-15T19:48:47.185Z,64.90
2019-06-15T19:51:16.812Z,65.30
2019-06-15T19:53:46.347Z,65.70
2019-06-15T19:56:16.206Z,65.80
2019-06-15T19:58:46.135Z,65.70
2019-06-15T20:01:17.162Z,66.20
2019-06-15T20:03:46.602Z,66.00
2019-06-15T20:06:17.025Z,66.30
2019-06-15T20:08:47.058Z,66.50
2019-06-15T20:11:16.983Z,67.10
2019-06-15T20:13:47.481Z,67.20
2019-06-15T20:16:18.555Z,67.50
2019-06-15T20:18:47.894Z,67.70
2019-06-15T20:21:17.258Z,68.00
2019-06-15T20:23:47.717Z,68.70
2019-06-15T20:26:17.098Z,69.00
2019-06-15T20:28:47.604Z,69.30
2019-06-15T20:31:17.017Z,69.70
2019-06-15T20:33:46.746Z,70.00
2019-06-15T20:36:16.829Z,70.20
2019-06-15T20:38:47.210Z,70.60
2019-06-15T20:41:17.542Z,70.80
2019-06-15T20:43:46.894Z,71.10
2019-06-15T20:46:17.229Z,71.50
2019-06-15T20:48:47.329Z,72.20
2019-06-15T20:51:17.310Z,72.50
2019-06-15T20:53:47.486Z,72.90
2019-06-15T20:56:17.137Z,73.40
2019-06-15T20:58:47.129Z,73.60
2019-06-15T21:01:16.543Z,73.80
2019-06-15T21:03:47.042Z,73.80
2019-06-15T21:06:18.221Z,74.00
2019-06-15T21:08:47.577Z,73.60
2019-06-15T21:11:17.749Z,73.90
2019-06-15T21:13:47.047Z,74.20
2019-06-15T21:16:16.475Z,74.70
2019-06-15T21:18:46.663Z,75.50
2019-06-15T21:21:16.729Z,76.20
2019-06-15T21:23:47.078Z,76.70
2019-06-15T21:26:16.520Z,77.00
2019-06-15T21:28:46.507Z,77.30
2019-06-15T21:31:16.699Z,77.70
2019-06-15T21:33:46.876Z,78.10
2019-06-15T21:36:16.804Z,78.40
2019-06-15T21:38:46.813Z,78.60
2019-06-15T21:41:16.877Z,79.00
2019-06-15T21:43:47.151Z,78.90
2019-06-15T21:46:17.194Z,79.10
2019-06-15T21:48:46.988Z,79.30
2019-06-15T21:51:16.965Z,79.60
2019-06-15T21:53:47.069Z,79.60
2019-06-15T21:56:17.103Z,80.00
2019-06-15T21:58:46.385Z,80.20
2019-06-15T22:01:29.570Z,80.40
2019-06-15T22:03:58.952Z,80.30
2019-06-15T22:06:28.237Z,80.50
2019-06-15T22:08:57.551Z,80.40
2019-06-15T22:11:26.845Z,80.40
2019-06-15T22:13:57.122Z,80.50
2019-06-15T22:16:27.726Z,80.40
2019-06-15T22:18:57.646Z,80.20
2019-06-15T22:21:28.048Z,80.20
2019-06-15T22:23:57.990Z,80.40
2019-06-15T22:26:27.297Z,80.40
2019-06-15T22:28:57.069Z,80.40
2019-06-15T22:31:27.311Z,80.50
2019-06-15T22:33:56.822Z,80.30
2019-06-15T22:36:28.578Z,80.00
2019-06-15T22:38:57.797Z,80.20
2019-06-15T22:41:27.145Z,79.80
2019-06-15T22:43:56.966Z,80.00
2019-06-15T22:46:26.899Z,80.30
2019-06-15T22:48:56.470Z,80.50
2019-06-15T22:51:27.515Z,80.60
2019-06-15T22:53:57.822Z,80.60
2019-06-15T22:56:27.186Z,80.60
2019-06-15T22:58:56.979Z,80.40
2019-06-15T23:01:27.054Z,80.60
2019-06-15T23:03:57.143Z,80.70
2019-06-15T23:06:37.528Z,80.90
2019-06-15T23:08:58.267Z,80.70
2019-06-15T23:11:27.603Z,80.80
2019-06-15T23:13:57.560Z,81.00
2019-06-15T23:16:27.669Z,81.90
2019-06-15T23:18:57.458Z,82.60
2019-06-15T23:21:27.069Z,83.00
2019-06-15T23:23:57.041Z,82.80
2019-06-15T23:26:26.429Z,83.10
2019-06-15T23:28:56.454Z,83.10
2019-06-15T23:31:26.581Z,83.70
2019-06-15T23:33:56.184Z,84.00
2019-06-15T23:36:30.894Z,84.10
2019-06-15T23:39:00.237Z,83.70
2019-06-15T23:41:29.573Z,84.00
2019-06-15T23:43:58.859Z,84.70
2019-06-15T23:46:28.173Z,85.00
2019-06-15T23:48:57.493Z,84.90
2019-06-15T23:51:26.817Z,85.40
2019-06-15T23:53:57.171Z,86.20
2019-06-15T23:56:27.220Z,85.80
2019-06-15T23:58:56.527Z,86.50
